Time;durP1;ratioP1;P1;durP2;ratioP2;P2;SDS_P1;SDS_P2;PMS_P1;PMS_P2;Temp;Humidity;BMP_temperature;BMP_pressure;BME280_temperature;BME280_humidity;BME280_pressure;Samples;Min_cycle;Max_cycle;Signal;HPM_P1;HPM_P2
2022/02/13 00:00:17;;;;;;;3.10;1.00;;;-0.50;80.20;;;;;;5013633;28;20105;-84
2022/02/13 00:02:44;;;;;;;2.40;1.20;;;-0.50;80.50;;;;;;4997698;28;20466;-84
2022/02/13 00:05:10;;;;;;;3.90;1.40;;;-0.50;80.70;;;;;;5014254;28;20388;-85
2022/02/13 00:07:36;;;;;;;2.60;1.13;;;-0.50;80.70;;;;;;5034566;28;20104;-85
2022/02/13 00:10:07;;;;;;;4.22;1.60;;;-0.50;80.80;;;;;;5036302;28;20060;-85
2022/02/13 00:12:32;;;;;;;2.88;1.52;;;-0.50;81.00;;;;;;5035606;28;20101;-84
2022/02/13 00:14:58;;;;;;;2.50;1.10;;;-0.50;81.30;;;;;;5018232;28;20053;-84
2022/02/13 00:17:24;;;;;;;1.38;0.85;;;-0.50;81.60;;;;;;5035399;28;20029;-83
2022/02/13 00:19:50;;;;;;;4.90;1.42;;;-0.50;81.90;;;;;;5035476;28;20021;-86
2022/02/13 00:22:21;;;;;;;2.78;1.10;;;-0.60;82.10;;;;;;5035086;28;20026;-83
2022/02/13 00:24:47;;;;;;;2.80;1.60;;;-0.50;82.40;;;;;;5017300;28;20111;-83
2022/02/13 00:27:13;;;;;;;3.88;1.75;;;-0.60;82.50;;;;;;5036964;28;20605;-84
2022/02/13 00:29:39;;;;;;;3.20;1.83;;;-0.60;82.60;;;;;;5039108;28;20072;-83
2022/02/13 00:32:06;;;;;;;10.32;2.08;;;-0.50;83.00;;;;;;5039686;28;20500;-84
2022/02/13 00:34:32;;;;;;;5.17;1.93;;;-0.50;83.10;;;;;;5035971;28;20375;-82
2022/02/13 00:36:58;;;;;;;3.63;1.25;;;-0.50;83.20;;;;;;5043938;28;20250;-82
2022/02/13 00:39:24;;;;;;;1.83;1.30;;;-0.40;83.20;;;;;;5035516;28;20026;-85
2022/02/13 00:41:50;;;;;;;3.83;1.55;;;-0.40;83.30;;;;;;5037533;28;20060;-83
2022/02/13 00:44:16;;;;;;;2.58;1.35;;;-0.40;83.50;;;;;;5042917;28;20120;-83
2022/02/13 00:46:42;;;;;;;3.95;1.33;;;-0.30;83.50;;;;;;5028353;28;20026;-86
2022/02/13 00:49:07;;;;;;;3.63;1.60;;;-0.30;83.50;;;;;;5022927;28;20090;-82
2022/02/13 00:51:33;;;;;;;2.83;1.30;;;-0.30;83.40;;;;;;5034865;28;20029;-83
2022/02/13 00:53:59;;;;;;;3.85;1.40;;;-0.30;83.50;;;;;;5048200;28;20021;-85
2022/02/13 00:56:25;;;;;;;4.20;1.40;;;-0.30;83.60;;;;;;5036975;28;20037;-85
2022/02/13 00:58:54;;;;;;;3.25;1.20;;;-0.30;83.80;;;;;;5017938;28;20021;-86
2022/02/13 01:01:20;;;;;;;3.08;1.35;;;-0.30;83.90;;;;;;5035021;28;20028;-85
2022/02/13 01:03:46;;;;;;;3.80;1.90;;;-0.20;84.10;;;;;;5035255;28;20026;-87
2022/02/13 01:06:13;;;;;;;2.33;1.33;;;-0.20;84.10;;;;;;5017493;28;20506;-89
2022/02/13 01:08:39;;;;;;;1.60;1.05;;;-0.20;84.40;;;;;;5036634;28;20033;-88
2022/02/13 01:11:05;;;;;;;6.30;2.25;;;-0.20;84.40;;;;;;5019246;28;20391;-89
2022/02/13 01:13:31;;;;;;;2.88;1.20;;;-0.20;84.50;;;;;;5042144;28;20520;-87
2022/02/13 01:15:58;;;;;;;3.78;1.20;;;-0.10;84.60;;;;;;5040792;28;20100;-88
2022/02/13 01:18:24;;;;;;;1.92;1.20;;;-0.10;84.60;;;;;;5025017;28;20030;-87
2022/02/13 01:20:51;;;;;;;4.18;1.42;;;-0.10;84.70;;;;;;5021553;28;20061;-84
2022/02/13 01:23:17;;;;;;;2.85;1.05;;;-0.10;84.70;;;;;;4997513;28;20022;-85
2022/02/13 01:25:43;;;;;;;2.08;1.50;;;0.00;84.90;;;;;;4997996;28;20069;-84
2022/02/13 01:28:09;;;;;;;2.58;1.27;;;0.00;84.80;;;;;;5016706;28;20021;-88
2022/02/13 01:30:35;;;;;;;6.43;2.13;;;0.10;85.00;;;;;;5017682;28;20037;-86
2022/02/13 01:33:01;;;;;;;4.97;2.03;;;0.10;85.00;;;;;;4999338;28;20022;-85
2022/02/13 01:35:28;;;;;;;1.90;1.05;;;0.10;85.00;;;;;;4998144;28;20394;-85
2022/02/13 01:37:54;;;;;;;3.13;1.10;;;0.10;85.00;;;;;;5017717;28;20194;-86
2022/02/13 01:40:19;;;;;;;4.65;1.20;;;0.10;85.00;;;;;;5036674;28;20051;-85
2022/02/13 01:42:45;;;;;;;3.95;1.45;;;0.20;85.10;;;;;;5018628;28;20112;-85
2022/02/13 01:45:12;;;;;;;4.07;1.67;;;0.20;85.20;;;;;;5035229;28;20088;-86
2022/02/13 01:47:38;;;;;;;4.30;1.92;;;0.20;85.20;;;;;;5017539;28;20043;-85
2022/02/13 01:50:07;;;;;;;3.72;1.30;;;0.30;85.30;;;;;;5017441;28;20438;-84
2022/02/13 01:52:33;;;;;;;29.08;4.22;;;0.30;85.30;;;;;;5014536;28;20037;-86
2022/02/13 01:54:59;;;;;;;2.78;1.38;;;0.30;85.30;;;;;;5006737;28;20057;-85
2022/02/13 01:57:26;;;;;;;3.92;1.52;;;0.30;85.30;;;;;;5018081;28;20352;-83
2022/02/13 01:59:52;;;;;;;2.25;1.08;;;0.30;85.50;;;;;;5014672;28;20036;-83
2022/02/13 02:02:18;;;;;;;4.00;2.03;;;0.30;85.60;;;;;;5028576;28;20029;-84
2022/02/13 02:04:44;;;;;;;1.95;1.15;;;0.30;85.70;;;;;;5029376;28;20049;-84
2022/02/13 02:07:10;;;;;;;4.57;1.52;;;0.40;85.80;;;;;;5043911;28;20033;-86
2022/02/13 02:09:36;;;;;;;7.07;1.40;;;0.40;85.80;;;;;;5017785;28;20574;-85
2022/02/13 02:12:03;;;;;;;4.80;1.23;;;0.40;85.70;;;;;;5034702;28;20056;-85
2022/02/13 02:14:29;;;;;;;3.53;1.42;;;0.40;85.80;;;;;;5033208;28;20029;-85
2022/02/13 02:16:55;;;;;;;4.20;1.48;;;0.40;85.70;;;;;;5016430;28;20035;-86
2022/02/13 02:19:21;;;;;;;2.58;1.70;;;0.50;85.70;;;;;;5016624;28;20497;-85
2022/02/13 02:21:46;;;;;;;3.85;2.15;;;0.50;85.70;;;;;;5033529;28;20021;-86
2022/02/13 02:24:13;;;;;;;3.28;1.40;;;0.50;85.70;;;;;;5023956;28;20038;-86
2022/02/13 02:26:39;;;;;;;2.05;0.95;;;0.60;85.80;;;;;;5014453;28;20483;-84
2022/02/13 02:29:06;;;;;;;2.17;1.20;;;0.60;85.70;;;;;;5014122;28;20026;-85
2022/02/13 02:31:32;;;;;;;3.10;1.25;;;0.60;85.50;;;;;;5025790;28;20020;-85
2022/02/13 02:33:57;;;;;;;2.78;1.35;;;0.60;85.60;;;;;;4996988;28;20094;-84
2022/02/13 02:36:23;;;;;;;3.55;1.42;;;0.70;85.70;;;;;;4996309;28;20060;-86
2022/02/13 02:38:49;;;;;;;1.42;1.00;;;0.70;85.70;;;;;;5017607;28;20061;-83
2022/02/13 02:41:15;;;;;;;3.53;1.63;;;0.70;85.60;;;;;;5036395;28;20037;-83
2022/02/13 02:43:42;;;;;;;3.40;1.70;;;0.70;85.60;;;;;;5051063;28;20044;-84
2022/02/13 02:46:08;;;;;;;2.58;1.10;;;0.70;85.60;;;;;;5017782;28;20033;-84
2022/02/13 02:48:34;;;;;;;2.83;1.70;;;0.80;85.70;;;;;;5036323;28;20029;-83
2022/02/13 02:51:01;;;;;;;3.42;2.08;;;0.80;85.60;;;;;;5020357;28;20076;-83
2022/02/13 02:53:28;;;;;;;4.75;1.48;;;0.80;85.60;;;;;;5037119;28;20026;-84
2022/02/13 02:55:55;;;;;;;5.30;1.73;;;0.80;85.60;;;;;;5037214;28;20025;-84
2022/02/13 02:58:21;;;;;;;2.45;1.35;;;0.80;85.50;;;;;;5018983;28;20034;-83
2022/02/13 03:00:48;;;;;;;2.83;1.75;;;0.90;85.50;;;;;;5014268;28;20392;-83
2022/02/13 03:03:14;;;;;;;2.97;1.30;;;0.90;85.50;;;;;;4996259;28;20053;-84
2022/02/13 03:05:40;;;;;;;3.15;1.70;;;0.90;85.50;;;;;;5014339;28;20441;-84
2022/02/13 03:08:06;;;;;;;3.28;1.35;;;0.90;85.50;;;;;;5014209;28;20049;-83
2022/02/13 03:10:31;;;;;;;5.35;1.80;;;1.00;85.50;;;;;;5014153;28;20034;-84
2022/02/13 03:12:57;;;;;;;3.80;1.38;;;1.00;85.30;;;;;;5011297;28;20049;-83
2022/02/13 03:15:23;;;;;;;2.17;1.58;;;1.00;85.30;;;;;;5016458;28;20470;-83
2022/02/13 03:17:49;;;;;;;3.72;1.67;;;1.00;85.20;;;;;;5034102;28;20029;-87
2022/02/13 03:20:15;;;;;;;3.70;1.20;;;1.00;85.20;;;;;;5035019;28;20419;-88
2022/02/13 03:22:40;;;;;;;5.35;1.40;;;1.00;85.10;;;;;;5020095;28;20027;-86
2022/02/13 03:25:06;;;;;;;2.15;1.48;;;1.00;85.10;;;;;;5019356;28;20083;-89
2022/02/13 03:27:32;;;;;;;4.43;1.80;;;1.00;85.00;;;;;;5034435;28;20060;-87
2022/02/13 03:29:58;;;;;;;3.35;1.23;;;1.00;85.10;;;;;;5023680;28;20065;-86
2022/02/13 03:32:24;;;;;;;2.40;1.42;;;1.00;85.00;;;;;;5014328;28;20029;-86
2022/02/13 03:34:50;;;;;;;2.15;1.27;;;1.00;85.10;;;;;;5017380;28;20033;-83
2022/02/13 03:37:16;;;;;;;2.72;1.35;;;1.10;85.10;;;;;;4999846;28;20127;-83
2022/02/13 03:39:42;;;;;;;3.55;1.80;;;1.10;84.90;;;;;;4999505;28;20033;-84
2022/02/13 03:42:08;;;;;;;3.05;1.48;;;1.00;84.80;;;;;;5017851;28;20022;-87
2022/02/13 03:44:36;;;;;;;5.50;1.25;;;1.00;84.90;;;;;;5017933;28;20037;-84
2022/02/13 03:47:03;;;;;;;3.38;1.30;;;1.10;85.00;;;;;;4999315;28;20117;-85
2022/02/13 03:49:29;;;;;;;;;;;1.10;85.10;;;;;;5027366;28;20027;-84
2022/02/13 03:51:55;;;;;;;3.35;1.20;;;1.10;85.00;;;;;;5040211;28;19905;-85
2022/02/13 03:54:21;;;;;;;2.42;1.60;;;1.00;84.70;;;;;;5037234;28;20528;-84
2022/02/13 03:56:47;;;;;;;3.03;2.00;;;1.10;84.70;;;;;;5048630;28;20041;-82
2022/02/13 03:59:14;;;;;;;2.55;1.67;;;1.10;84.70;;;;;;5054377;28;20017;-82
2022/02/13 04:01:40;;;;;;;8.77;2.10;;;1.10;84.70;;;;;;5044183;28;20029;-86
2022/02/13 04:04:06;;;;;;;3.08;1.70;;;1.20;84.60;;;;;;5018714;28;20033;-84
2022/02/13 04:06:32;;;;;;;3.90;1.67;;;1.20;84.60;;;;;;5036809;28;20478;-85
2022/02/13 04:08:58;;;;;;;3.03;1.33;;;1.20;84.50;;;;;;5018259;28;20040;-84
2022/02/13 04:11:24;;;;;;;2.90;1.52;;;1.30;84.30;;;;;;5018727;28;20030;-86
2022/02/13 04:13:50;;;;;;;4.53;1.90;;;1.20;84.20;;;;;;5018533;28;20032;-84
2022/02/13 04:16:16;;;;;;;4.03;1.40;;;1.20;84.20;;;;;;5020599;28;20044;-85
2022/02/13 04:18:41;;;;;;;3.05;1.42;;;1.30;84.20;;;;;;5018566;28;20037;-83
2022/02/13 04:21:07;;;;;;;7.00;1.95;;;1.30;84.20;;;;;;5017612;28;20480;-84
2022/02/13 04:23:33;;;;;;;2.28;1.17;;;1.30;84.00;;;;;;5016289;28;20041;-83
2022/02/13 04:26:00;;;;;;;4.53;1.80;;;1.30;83.80;;;;;;5018478;28;20503;-85
2022/02/13 04:28:26;;;;;;;3.75;1.17;;;1.30;83.80;;;;;;5007718;28;20025;-83
2022/02/13 04:30:55;;;;;;;3.13;1.67;;;1.30;83.70;;;;;;5017275;28;20331;-84
2022/02/13 04:33:22;;;;;;;2.55;1.45;;;1.30;83.60;;;;;;5016044;28;20298;-85
2022/02/13 04:35:48;;;;;;;3.27;1.30;;;1.30;83.70;;;;;;5018091;28;20396;-84
2022/02/13 04:38:15;;;;;;;5.38;1.95;;;1.40;83.60;;;;;;4997856;28;20053;-83
2022/02/13 04:40:41;;;;;;;5.88;1.65;;;1.30;83.30;;;;;;4998483;28;20410;-84
2022/02/13 04:43:07;;;;;;;5.78;1.60;;;1.30;83.30;;;;;;4998375;28;20044;-85
2022/02/13 04:45:33;;;;;;;2.88;1.63;;;1.40;83.40;;;;;;5015472;28;20021;-85
2022/02/13 04:47:59;;;;;;;6.03;2.10;;;1.30;83.40;;;;;;5021375;28;20014;-84
2022/02/13 04:50:25;;;;;;;4.93;2.28;;;1.30;83.20;;;;;;5036133;28;20096;-84
2022/02/13 04:52:55;;;;;;;2.30;1.55;;;1.40;83.30;;;;;;5020530;28;20053;-85
2022/02/13 04:55:22;;;;;;;4.03;2.50;;;1.40;83.10;;;;;;5016581;28;20529;-83
2022/02/13 04:57:48;;;;;;;5.50;1.90;;;1.40;83.20;;;;;;5012813;28;20036;-84
2022/02/13 05:00:16;;;;;;;6.65;1.02;;;1.40;83.00;;;;;;5024209;28;20022;-86
2022/02/13 05:02:44;;;;;;;4.75;1.00;;;1.40;82.80;;;;;;5002521;28;20035;-86
2022/02/13 05:05:09;;;;;;;;;;;1.40;82.80;;;;;;5004692;28;20101;-84
2022/02/13 05:07:35;;;;;;;5.53;1.33;;;1.40;82.80;;;;;;5027049;28;19956;-84
2022/02/13 05:10:02;;;;;;;3.70;1.23;;;1.40;82.80;;;;;;5020725;28;20029;-86
2022/02/13 05:12:28;;;;;;;3.58;1.73;;;1.40;82.60;;;;;;5021036;28;20048;-86
2022/02/13 05:14:54;;;;;;;6.97;1.85;;;1.40;82.70;;;;;;5021395;28;20041;-86
2022/02/13 05:17:21;;;;;;;3.55;1.52;;;1.40;82.80;;;;;;5037360;28;20484;-85
2022/02/13 05:19:47;;;;;;;2.65;1.30;;;1.50;82.70;;;;;;5037705;28;20104;-87
2022/02/13 05:22:14;;;;;;;6.07;2.38;;;1.40;82.60;;;;;;5036987;28;20021;-86
2022/02/13 05:24:40;;;;;;;3.17;1.27;;;1.40;82.60;;;;;;5036094;28;20030;-86
2022/02/13 05:27:06;;;;;;;3.65;1.60;;;1.50;82.40;;;;;;5037188;28;20152;-87
2022/02/13 05:29:33;;;;;;;4.63;1.35;;;1.50;82.40;;;;;;5021500;28;20034;-85
2022/02/13 05:32:00;;;;;;;4.95;2.00;;;1.50;82.40;;;;;;5022205;28;20018;-86
2022/02/13 05:34:26;;;;;;;3.75;1.38;;;1.50;82.10;;;;;;5024930;28;20033;-87
2022/02/13 05:36:55;;;;;;;9.45;1.95;;;1.50;82.10;;;;;;5000938;28;20121;-87
2022/02/13 05:39:20;;;;;;;3.75;1.27;;;1.60;82.40;;;;;;5016092;28;20038;-88
2022/02/13 05:41:46;;;;;;;6.47;1.75;;;1.60;82.30;;;;;;5016191;28;20060;-87
2022/02/13 05:44:12;;;;;;;3.33;1.20;;;1.60;82.30;;;;;;4997645;28;20191;-88
2022/02/13 05:46:38;;;;;;;2.72;1.70;;;1.60;82.00;;;;;;5003672;28;20022;-87
2022/02/13 05:49:04;;;;;;;2.78;1.25;;;1.60;82.00;;;;;;5029627;28;20033;-87
2022/02/13 05:51:30;;;;;;;4.78;1.60;;;1.60;81.90;;;;;;5040467;28;20053;-84
2022/02/13 05:53:57;;;;;;;3.40;1.40;;;1.60;81.80;;;;;;5035971;28;20021;-87
2022/02/13 05:56:23;;;;;;;3.38;1.50;;;1.60;81.90;;;;;;5033751;28;20026;-88
2022/02/13 05:58:51;;;;;;;5.28;1.95;;;1.70;81.90;;;;;;5018912;28;20029;-85
2022/02/13 06:01:18;;;;;;;6.45;1.58;;;1.70;81.80;;;;;;5035071;28;20083;-83
2022/02/13 06:03:45;;;;;;;4.30;1.63;;;1.70;81.60;;;;;;5034152;28;20034;-87
2022/02/13 06:06:10;;;;;;;5.13;1.83;;;1.70;81.60;;;;;;5035231;28;20053;-87
2022/02/13 06:08:37;;;;;;;4.63;1.88;;;1.70;81.70;;;;;;5034393;28;20041;-84
2022/02/13 06:11:03;;;;;;;5.38;2.10;;;1.70;81.70;;;;;;5016957;28;20406;-85
2022/02/13 06:13:29;;;;;;;5.03;1.70;;;1.80;81.60;;;;;;5018882;28;20064;-86
2022/02/13 06:15:55;;;;;;;3.95;1.40;;;1.80;81.40;;;;;;5019647;28;20025;-87
2022/02/13 06:18:21;;;;;;;5.78;1.60;;;1.80;81.50;;;;;;5043912;28;20490;-85
2022/02/13 06:20:47;;;;;;;4.35;1.35;;;1.80;81.40;;;;;;5026978;28;20026;-85
2022/02/13 06:23:13;;;;;;;2.17;1.25;;;1.80;81.00;;;;;;5045958;28;20022;-84
2022/02/13 06:25:40;;;;;;;4.20;1.48;;;1.80;81.00;;;;;;5027877;28;20034;-86
2022/02/13 06:28:06;;;;;;;3.45;1.73;;;1.80;81.30;;;;;;5019451;28;20028;-84
2022/02/13 06:30:33;;;;;;;6.10;2.17;;;1.90;82.00;;;;;;5015445;28;20025;-86
2022/02/13 06:32:59;;;;;;;2.45;1.17;;;1.90;81.40;;;;;;5015241;28;20152;-86
2022/02/13 06:35:27;;;;;;;2.83;1.73;;;2.00;81.50;;;;;;5015481;28;20033;-86
2022/02/13 06:37:53;;;;;;;5.53;2.20;;;2.00;81.30;;;;;;5004493;28;20073;-86
2022/02/13 06:40:19;;;;;;;4.95;2.08;;;2.00;81.00;;;;;;5015181;28;20029;-88
2022/02/13 06:42:45;;;;;;;4.00;1.48;;;2.00;80.90;;;;;;5012764;28;20136;-86
2022/02/13 06:45:11;;;;;;;5.53;1.85;;;2.00;81.00;;;;;;5013297;28;20559;-85
2022/02/13 06:47:36;;;;;;;2.60;1.25;;;2.00;81.20;;;;;;5015075;28;20022;-86
2022/02/13 06:50:03;;;;;;;4.38;1.50;;;2.00;80.80;;;;;;5014434;28;20121;-86
2022/02/13 06:52:29;;;;;;;3.30;1.50;;;2.10;81.00;;;;;;5014270;28;20089;-84
2022/02/13 06:54:56;;;;;;;3.88;1.75;;;2.10;81.00;;;;;;5016279;28;20035;-86
2022/02/13 06:57:22;;;;;;;6.90;1.48;;;2.20;80.70;;;;;;5014647;28;20495;-86
2022/02/13 06:59:48;;;;;;;2.45;1.55;;;2.20;80.40;;;;;;5017233;28;20122;-87
2022/02/13 07:02:14;;;;;;;6.18;2.25;;;2.20;80.20;;;;;;5023341;28;20033;-84
2022/02/13 07:04:40;;;;;;;7.03;2.53;;;2.20;80.50;;;;;;5018407;28;20042;-84
2022/02/13 07:07:06;;;;;;;7.43;2.03;;;2.20;80.30;;;;;;5019706;28;20022;-85
2022/02/13 07:09:32;;;;;;;3.45;2.05;;;2.20;80.20;;;;;;5012073;28;20037;-84
2022/02/13 07:12:04;;;;;;;4.72;1.75;;;2.20;80.20;;;;;;5029715;28;20053;-85
2022/02/13 07:14:32;;;;;;;3.80;1.38;;;2.20;80.40;;;;;;5035365;28;20025;-85
2022/02/13 07:16:59;;;;;;;2.78;2.00;;;2.20;80.40;;;;;;5030688;28;20014;-85
2022/02/13 07:19:28;;;;;;;6.68;2.05;;;2.20;80.50;;;;;;5028471;28;20033;-85
2022/02/13 07:21:53;;;;;;;5.20;1.40;;;2.20;80.60;;;;;;5024613;28;20363;-84
2022/02/13 07:24:20;;;;;;;7.03;2.10;;;2.20;80.30;;;;;;5018456;28;20045;-86
2022/02/13 07:26:45;;;;;;;4.78;2.00;;;2.20;80.50;;;;;;5021300;28;20026;-87
2022/02/13 07:29:11;;;;;;;4.03;2.05;;;2.20;80.60;;;;;;5018962;28;20388;-87
2022/02/13 07:31:37;;;;;;;2.85;1.90;;;2.30;80.80;;;;;;5019200;28;20026;-84
2022/02/13 07:34:04;;;;;;;5.95;2.08;;;2.30;80.50;;;;;;5022195;28;20428;-85
2022/02/13 07:36:31;;;;;;;3.53;1.63;;;2.30;80.50;;;;;;5017440;28;20026;-86
2022/02/13 07:38:58;;;;;;;2.70;1.52;;;2.40;80.60;;;;;;5038570;28;20045;-84
2022/02/13 07:41:26;;;;;;;4.75;2.42;;;2.40;80.20;;;;;;5020073;28;20057;-86
2022/02/13 07:43:53;;;;;;;9.00;2.70;;;2.50;80.20;;;;;;5035365;28;20418;-86
2022/02/13 07:46:19;;;;;;;9.02;1.85;;;2.60;80.10;;;;;;5038595;28;20382;-87
2022/02/13 07:48:46;;;;;;;4.38;2.28;;;2.60;80.00;;;;;;5038491;28;20056;-87
2022/02/13 07:51:12;;;;;;;4.37;2.40;;;2.60;79.50;;;;;;5023243;28;20431;-86
2022/02/13 07:53:40;;;;;;;3.17;1.77;;;2.60;79.70;;;;;;5045167;28;20030;-87
2022/02/13 07:56:07;;;;;;;5.57;1.50;;;2.70;79.70;;;;;;5025400;28;20029;-88
2022/02/13 07:58:32;;;;;;;9.23;1.88;;;2.70;79.50;;;;;;5017687;28;20394;-84
2022/02/13 08:01:06;;;;;;;5.82;2.42;;;2.70;79.00;;;;;;5018231;28;20025;-86
2022/02/13 08:03:35;;;;;;;5.50;1.95;;;2.70;79.60;;;;;;5037319;28;20040;-87
2022/02/13 08:06:01;;;;;;;3.42;1.67;;;2.80;79.40;;;;;;5036295;28;20022;-85
2022/02/13 08:08:28;;;;;;;7.60;2.25;;;2.90;79.30;;;;;;5037316;28;20438;-86
2022/02/13 08:10:54;;;;;;;7.47;2.40;;;2.90;79.10;;;;;;5019434;28;20079;-88
2022/02/13 08:13:22;;;;;;;4.80;2.15;;;3.00;79.30;;;;;;5046769;28;20029;-87
2022/02/13 08:15:50;;;;;;;5.30;1.75;;;3.10;79.10;;;;;;5036169;28;20048;-86
2022/02/13 08:18:15;;;;;;;;;;;3.20;78.50;;;;;;5007196;28;20129;-88
2022/02/13 08:20:41;;;;;;;5.13;1.85;;;3.20;78.50;;;;;;5016854;28;19916;-88
2022/02/13 08:23:09;;;;;;;9.05;2.83;;;3.20;78.10;;;;;;5004885;28;20022;-86
2022/02/13 08:25:35;;;;;;;6.15;2.58;;;3.20;78.10;;;;;;5022170;28;20406;-85
2022/02/13 08:28:01;;;;;;;3.08;1.67;;;3.10;78.20;;;;;;5043691;28;20040;-87
2022/02/13 08:30:27;;;;;;;9.48;2.28;;;3.10;78.30;;;;;;5047850;28;20029;-85
2022/02/13 08:32:53;;;;;;;4.78;2.53;;;3.20;78.10;;;;;;5013530;28;20542;-85
2022/02/13 08:35:19;;;;;;;5.28;2.13;;;3.20;78.00;;;;;;5030603;28;20080;-85
2022/02/13 08:37:44;;;;;;;6.93;2.25;;;3.30;78.00;;;;;;5017616;28;20054;-82
2022/02/13 08:40:11;;;;;;;6.50;1.92;;;3.20;78.00;;;;;;5027784;28;20025;-85
2022/02/13 08:42:37;;;;;;;5.25;2.22;;;3.40;78.30;;;;;;5025675;28;20030;-88
2022/02/13 08:45:03;;;;;;;5.65;2.53;;;3.50;77.70;;;;;;5029484;28;20041;-85
2022/02/13 08:47:30;;;;;;;3.50;1.90;;;3.60;77.70;;;;;;5038321;28;20049;-85
2022/02/13 08:49:56;;;;;;;5.03;2.50;;;3.80;77.20;;;;;;5022679;28;20452;-85
2022/02/13 08:52:21;;;;;;;5.28;1.92;;;4.00;76.60;;;;;;5027723;28;20061;-80
2022/02/13 08:54:47;;;;;;;2.53;1.83;;;4.00;75.80;;;;;;5034019;28;20060;-85
2022/02/13 08:57:13;;;;;;;8.57;2.50;;;3.70;75.40;;;;;;5036616;28;20502;-89
2022/02/13 08:59:40;;;;;;;10.63;2.60;;;3.60;76.40;;;;;;5020365;28;20033;-87
2022/02/13 09:02:06;;;;;;;5.93;2.95;;;3.60;76.50;;;;;;5027703;28;20534;-86
2022/02/13 09:04:32;;;;;;;4.80;1.85;;;3.70;76.60;;;;;;5002397;28;20503;-82
2022/02/13 09:07:01;;;;;;;4.72;1.60;;;3.70;76.40;;;;;;5016314;28;20094;-83
2022/02/13 09:09:34;;;;;;;9.10;2.03;;;3.70;76.50;;;;;;5015569;28;20064;-79
2022/02/13 09:11:59;;;;;;;7.60;3.20;;;3.80;76.00;;;;;;5015498;28;20022;-84
2022/02/13 09:14:25;;;;;;;4.15;2.20;;;4.00;76.00;;;;;;5016326;28;20364;-88
2022/02/13 09:16:51;;;;;;;4.45;2.45;;;4.10;75.60;;;;;;5017407;28;20030;-88
2022/02/13 09:19:19;;;;;;;5.05;2.38;;;4.00;75.20;;;;;;5017135;28;20026;-85
2022/02/13 09:21:51;;;;;;;;;;;3.90;75.50;;;;;;5019705;28;20100;-88
2022/02/13 09:24:18;;;;;;;2.83;1.67;;;3.90;75.60;;;;;;5034663;28;19914;-87
2022/02/13 09:26:44;;;;;;;6.93;1.80;;;3.80;75.70;;;;;;5032577;28;20025;-89
2022/02/13 09:29:09;;;;;;;2.85;1.63;;;3.70;75.90;;;;;;5041430;28;20354;-83
2022/02/13 09:31:35;;;;;;;6.40;2.13;;;3.70;76.50;;;;;;5036576;28;20049;-83
2022/02/13 09:34:01;;;;;;;5.53;1.65;;;3.70;76.30;;;;;;5028853;28;20029;-86
2022/02/13 09:36:27;;;;;;;3.95;1.63;;;3.70;76.30;;;;;;5044103;28;20036;-87
2022/02/13 09:38:54;;;;;;;4.45;1.67;;;3.60;76.70;;;;;;5038640;28;20426;-90
2022/02/13 09:41:20;;;;;;;3.78;2.13;;;3.60;76.80;;;;;;5037793;28;20025;-86
2022/02/13 09:43:46;;;;;;;10.85;2.95;;;3.60;76.70;;;;;;5020768;28;20443;-88
2022/02/13 09:46:14;;;;;;;4.40;1.85;;;3.60;77.00;;;;;;5038292;28;20056;-85
2022/02/13 09:48:40;;;;;;;;;;;3.60;77.40;;;;;;5019123;28;20021;-83
2022/02/13 09:51:06;;;;;;;4.07;2.25;;;3.60;77.60;;;;;;5034247;28;19912;-85
2022/02/13 09:53:34;;;;;;;5.45;1.77;;;3.50;77.70;;;;;;5019086;28;20022;-83
2022/02/13 09:56:05;;;;;;;5.05;2.10;;;3.40;77.60;;;;;;5023245;28;20025;-84
2022/02/13 09:58:31;;;;;;;3.53;2.03;;;3.20;77.90;;;;;;5033936;28;20028;-85
2022/02/13 10:01:04;;;;;;;4.40;1.90;;;3.20;78.10;;;;;;5018263;28;20033;-86
2022/02/13 10:03:43;;;;;;;6.22;2.22;;;3.20;78.20;;;;;;5014601;28;20034;-85
2022/02/13 10:06:11;;;;;;;3.30;2.17;;;3.30;78.60;;;;;;5016243;28;20091;-85
2022/02/13 10:08:46;;;;;;;4.55;1.80;;;3.40;78.00;;;;;;5031355;28;20041;-87
2022/02/13 10:11:33;;;;;;;6.40;2.40;;;3.30;78.00;;;;;;5023531;28;20026;-87
2022/02/13 10:14:06;;;;;;;3.03;1.80;;;3.20;78.20;;;;;;5014481;28;20026;-85
2022/02/13 10:16:37;;;;;;;6.22;2.00;;;3.10;78.30;;;;;;5014006;28;20026;-87
2022/02/13 10:19:07;;;;;;;5.30;2.90;;;3.10;78.70;;;;;;5015596;28;20022;-87
2022/02/13 10:21:35;;;;;;;8.07;2.08;;;3.20;79.00;;;;;;5016605;28;20033;-86
2022/02/13 10:24:20;;;;;;;4.07;1.95;;;3.30;78.90;;;;;;5011984;28;20042;-87
2022/02/13 10:26:56;;;;;;;6.05;2.13;;;3.40;78.70;;;;;;5019871;28;20053;-82
2022/02/13 10:29:27;;;;;;;6.10;2.42;;;3.50;78.60;;;;;;5013835;28;20033;-83
2022/02/13 10:32:14;;;;;;;4.25;3.08;;;3.50;77.90;;;;;;4997277;28;20030;-83
2022/02/13 10:34:54;;;;;;;6.00;2.17;;;3.50;77.60;;;;;;5034143;28;20095;-86
2022/02/13 10:37:44;;;;;;;6.80;3.47;;;3.40;77.90;;;;;;5035188;28;20046;-88
2022/02/13 10:40:18;;;;;;;9.70;2.47;;;3.50;78.10;;;;;;5033559;28;20060;-85
2022/02/13 10:42:44;;;;;;;4.40;2.20;;;3.60;77.80;;;;;;5036886;28;20029;-88
2022/02/13 10:45:22;;;;;;;5.80;2.17;;;3.60;77.20;;;;;;5041440;28;20038;-86
2022/02/13 10:47:53;;;;;;;3.05;1.75;;;3.60;76.70;;;;;;5040910;28;20022;-82
2022/02/13 10:50:23;;;;;;;5.47;1.60;;;3.40;76.40;;;;;;5033491;28;20026;-84
2022/02/13 10:52:58;;;;;;;6.35;2.38;;;3.30;77.10;;;;;;5030179;28;20018;-82
2022/02/13 10:55:31;;;;;;;4.20;1.70;;;3.50;77.10;;;;;;5043401;28;20029;-84
2022/02/13 10:57:58;;;;;;;5.53;2.30;;;3.50;76.80;;;;;;5023431;28;20025;-82
2022/02/13 11:00:30;;;;;;;6.05;1.70;;;3.40;76.50;;;;;;5022080;28;20021;-87
2022/02/13 11:03:04;;;;;;;3.85;1.10;;;3.30;76.90;;;;;;5022611;28;20400;-86
2022/02/13 11:05:33;;;;;;;3.03;1.88;;;3.30;76.80;;;;;;5020516;28;20495;-82
2022/02/13 11:08:08;;;;;;;5.38;2.20;;;3.20;76.90;;;;;;5020996;28;20167;-84
2022/02/13 11:10:40;;;;;;;2.75;1.90;;;3.20;77.00;;;;;;5039819;28;20559;-84
2022/02/13 11:13:14;;;;;;;4.55;1.52;;;3.10;77.10;;;;;;5040842;28;20022;-82
2022/02/13 11:15:42;;;;;;;4.40;1.35;;;3.10;77.30;;;;;;5047323;28;20030;-80
2022/02/13 11:18:14;;;;;;;6.65;2.50;;;3.20;77.40;;;;;;5039070;28;20378;-82
2022/02/13 11:20:42;;;;;;;3.85;1.67;;;3.30;77.70;;;;;;5039714;28;20503;-81
2022/02/13 11:23:21;;;;;;;;;;;3.50;76.60;;;;;;5039468;28;20095;-81
2022/02/13 11:26:05;;;;;;;4.68;2.35;;;3.30;76.40;;;;;;5039215;28;19996;-83
2022/02/13 11:28:43;;;;;;;13.02;3.65;;;3.30;76.80;;;;;;5021511;28;20461;-82
2022/02/13 11:31:29;;;;;;;6.75;3.40;;;3.30;76.60;;;;;;5022434;28;20461;-84
2022/02/13 11:33:55;;;;;;;8.73;4.68;;;3.30;76.70;;;;;;5029350;28;20067;-81
2022/02/13 11:36:38;;;;;;;13.07;5.55;;;3.40;76.60;;;;;;5060989;28;20025;-83
2022/02/13 11:39:04;;;;;;;4.22;2.40;;;3.40;76.70;;;;;;5052736;28;20053;-82
2022/02/13 11:41:45;;;;;;;5.70;3.08;;;3.40;76.10;;;;;;5044863;28;20025;-84
2022/02/13 11:44:44;;;;;;;7.28;2.72;;;3.50;76.00;;;;;;5041777;28;20372;-83
2022/02/13 11:47:40;;;;;;;4.68;2.30;;;3.50;75.90;;;;;;5041067;28;20024;-82
2022/02/13 11:50:11;;;;;;;7.10;2.50;;;3.60;75.60;;;;;;5037515;28;20037;-83
2022/02/13 11:52:51;;;;;;;6.03;2.83;;;3.60;75.50;;;;;;5021867;28;20021;-83
2022/02/13 11:55:21;;;;;;;5.93;2.47;;;3.50;75.60;;;;;;5021923;28;20484;-82
2022/02/13 11:58:01;;;;;;;3.88;1.83;;;3.60;75.70;;;;;;5021175;28;20459;-87
2022/02/13 12:00:37;;;;;;;4.88;2.40;;;3.50;75.70;;;;;;5025571;28;20384;-83
2022/02/13 12:03:11;;;;;;;3.17;2.13;;;3.40;75.80;;;;;;5024324;28;20072;-83
2022/02/13 12:05:38;;;;;;;3.22;2.03;;;3.30;76.30;;;;;;4997919;28;20038;-83
2022/02/13 12:08:04;;;;;;;4.10;1.70;;;3.20;76.50;;;;;;5016308;28;20108;-85
2022/02/13 12:10:39;;;;;;;5.13;1.80;;;3.10;76.40;;;;;;5015928;28;20065;-81
2022/02/13 12:13:13;;;;;;;6.93;1.95;;;3.00;76.90;;;;;;5017000;28;20357;-79
2022/02/13 12:15:49;;;;;;;3.72;1.48;;;3.00;76.70;;;;;;5023886;28;20021;-81
2022/02/13 12:18:15;;;;;;;6.72;2.33;;;3.00;76.20;;;;;;5019809;28;20026;-82
2022/02/13 12:20:45;;;;;;;3.90;1.75;;;2.90;76.00;;;;;;5036415;28;20049;-83
2022/02/13 12:23:14;;;;;;;4.70;2.03;;;2.90;76.00;;;;;;5035412;28;20419;-81
2022/02/13 12:25:48;;;;;;;3.67;1.70;;;2.80;75.80;;;;;;5036066;28;20041;-83
2022/02/13 12:28:17;;;;;;;3.05;2.20;;;2.80;76.00;;;;;;5036074;28;20020;-84
2022/02/13 12:30:48;;;;;;;4.97;2.50;;;2.80;76.50;;;;;;5039498;28;20021;-82
2022/02/13 12:33:17;;;;;;;11.10;3.08;;;2.80;76.60;;;;;;5014549;28;20030;-84
2022/02/13 12:35:43;;;;;;;5.15;1.88;;;2.80;76.70;;;;;;5014976;28;20033;-83
2022/02/13 12:38:09;;;;;;;5.15;2.88;;;2.80;76.70;;;;;;5029783;28;20050;-81
2022/02/13 12:40:43;;;;;;;7.75;2.53;;;2.80;76.70;;;;;;5034988;28;20071;-82
2022/02/13 12:43:17;;;;;;;6.95;3.20;;;2.80;76.90;;;;;;5036917;28;20028;-86
2022/02/13 12:45:45;;;;;;;13.80;5.25;;;2.80;77.00;;;;;;5028321;28;20046;-84
2022/02/13 12:48:15;;;;;;;8.57;3.67;;;2.90;77.10;;;;;;5016107;28;20029;-85
2022/02/13 12:50:46;;;;;;;8.77;3.20;;;3.00;76.70;;;;;;5036825;28;20030;-83
2022/02/13 12:53:15;;;;;;;6.00;3.05;;;2.90;75.80;;;;;;5035215;28;20432;-84
2022/02/13 12:55:42;;;;;;;4.40;1.80;;;2.70;75.50;;;;;;5036447;28;20025;-85
2022/02/13 12:58:09;;;;;;;5.10;3.45;;;2.40;75.00;;;;;;5035890;28;20383;-83
2022/02/13 13:00:49;;;;;;;6.63;3.22;;;2.20;75.80;;;;;;5035334;28;20398;-83